sensor_id;sensor_type;location;lat;lon;timestamp;pressure;altitude;pressure_sealevel;temperature;humidity
46241;BME280;31961;52.416;-0.732;2022-07-23T00:02:01;101012.31;;;16.90;47.94
46241;BME280;31961;52.416;-0.732;2022-07-23T00:04:28;101014.23;;;17.95;45.87
46241;BME280;31961;52.416;-0.732;2022-07-23T00:06:56;101010.95;;;17.32;46.97
46241;BME280;31961;52.416;-0.732;2022-07-23T00:09:23;101006.65;;;17.72;46.88
46241;BME280;31961;52.416;-0.732;2022-07-23T00:11:51;101006.82;;;17.69;47.08
46241;BME280;31961;52.416;-0.732;2022-07-23T00:14:19;101004.60;;;17.71;47.19
46241;BME280;31961;52.416;-0.732;2022-07-23T00:16:46;101001.10;;;18.03;45.87
46241;BME280;31961;52.416;-0.732;2022-07-23T00:19:14;101000.07;;;18.06;45.70
46241;BME280;31961;52.416;-0.732;2022-07-23T00:21:41;100999.86;;;17.40;47.14
46241;BME280;31961;52.416;-0.732;2022-07-23T00:24:09;100998.51;;;17.78;46.69
46241;BME280;31961;52.416;-0.732;2022-07-23T00:26:36;100997.00;;;17.01;48.41
46241;BME280;31961;52.416;-0.732;2022-07-23T00:29:04;100998.98;;;17.23;48.29
46241;BME280;31961;52.416;-0.732;2022-07-23T00:31:31;101003.28;;;16.63;49.51
46241;BME280;31961;52.416;-0.732;2022-07-23T00:33:59;101005.68;;;17.25;49.23
46241;BME280;31961;52.416;-0.732;2022-07-23T00:36:27;101003.92;;;16.95;48.67
46241;BME280;31961;52.416;-0.732;2022-07-23T00:38:54;101004.01;;;17.17;48.70
46241;BME280;31961;52.416;-0.732;2022-07-23T00:41:22;101007.93;;;16.39;50.18
46241;BME280;31961;52.416;-0.732;2022-07-23T00:43:50;101007.89;;;16.47;50.12
46241;BME280;31961;52.416;-0.732;2022-07-23T00:46:19;101003.76;;;17.12;49.22
46241;BME280;31961;52.416;-0.732;2022-07-23T00:48:47;101004.79;;;16.82;49.68
46241;BME280;31961;52.416;-0.732;2022-07-23T00:51:15;101003.56;;;16.36;50.52
46241;BME280;31961;52.416;-0.732;2022-07-23T00:53:43;100997.26;;;17.46;48.50
46241;BME280;31961;52.416;-0.732;2022-07-23T00:56:11;100995.89;;;16.99;49.34
46241;BME280;31961;52.416;-0.732;2022-07-23T00:58:39;100991.70;;;17.03;49.37
46241;BME280;31961;52.416;-0.732;2022-07-23T01:01:09;100985.96;;;16.88;49.93
46241;BME280;31961;52.416;-0.732;2022-07-23T01:03:38;100983.67;;;16.46;51.38
46241;BME280;31961;52.416;-0.732;2022-07-23T01:06:06;100975.41;;;16.68;50.51
46241;BME280;31961;52.416;-0.732;2022-07-23T01:08:33;100971.37;;;17.44;49.36
46241;BME280;31961;52.416;-0.732;2022-07-23T01:11:01;100966.76;;;16.37;50.72
46241;BME280;31961;52.416;-0.732;2022-07-23T01:13:28;100967.93;;;16.76;50.39
46241;BME280;31961;52.416;-0.732;2022-07-23T01:15:56;100965.80;;;17.29;50.49
46241;BME280;31961;52.416;-0.732;2022-07-23T01:18:24;100964.17;;;16.57;51.41
46241;BME280;31961;52.416;-0.732;2022-07-23T01:20:51;100965.73;;;16.74;51.76
46241;BME280;31961;52.416;-0.732;2022-07-23T01:23:19;100965.09;;;16.72;51.28
46241;BME280;31961;52.416;-0.732;2022-07-23T01:25:48;100964.56;;;16.97;50.40
46241;BME280;31961;52.416;-0.732;2022-07-23T01:28:16;100959.33;;;16.61;51.22
46241;BME280;31961;52.416;-0.732;2022-07-23T01:30:43;100958.71;;;16.31;52.23
46241;BME280;31961;52.416;-0.732;2022-07-23T01:33:11;100954.02;;;16.50;51.77
46241;BME280;31961;52.416;-0.732;2022-07-23T01:35:37;100948.89;;;16.63;51.70
46241;BME280;31961;52.416;-0.732;2022-07-23T01:38:05;100953.87;;;15.95;53.21
46241;BME280;31961;52.416;-0.732;2022-07-23T01:40:33;100949.96;;;16.86;50.64
46241;BME280;31961;52.416;-0.732;2022-07-23T01:43:00;100955.99;;;17.06;49.99
46241;BME280;31961;52.416;-0.732;2022-07-23T01:45:28;100954.19;;;16.72;51.13
46241;BME280;31961;52.416;-0.732;2022-07-23T01:47:55;100953.62;;;17.01;50.22
46241;BME280;31961;52.416;-0.732;2022-07-23T01:50:23;100950.25;;;16.94;50.37
46241;BME280;31961;52.416;-0.732;2022-07-23T01:52:51;100947.28;;;16.99;49.76
46241;BME280;31961;52.416;-0.732;2022-07-23T01:55:19;100950.01;;;16.91;50.60
46241;BME280;31961;52.416;-0.732;2022-07-23T01:57:46;100950.43;;;17.11;51.08
46241;BME280;31961;52.416;-0.732;2022-07-23T02:00:14;100946.11;;;16.79;50.71
46241;BME280;31961;52.416;-0.732;2022-07-23T02:02:41;100950.46;;;15.79;52.57
46241;BME280;31961;52.416;-0.732;2022-07-23T02:05:09;100944.58;;;16.96;50.79
46241;BME280;31961;52.416;-0.732;2022-07-23T02:07:36;100945.43;;;16.50;51.37
46241;BME280;31961;52.416;-0.732;2022-07-23T02:10:04;100943.62;;;16.17;52.33
46241;BME280;31961;52.416;-0.732;2022-07-23T02:12:32;100948.30;;;17.07;51.05
46241;BME280;31961;52.416;-0.732;2022-07-23T02:15:00;100946.27;;;16.37;52.25
46241;BME280;31961;52.416;-0.732;2022-07-23T02:17:26;100946.29;;;16.84;51.82
46241;BME280;31961;52.416;-0.732;2022-07-23T02:19:53;100946.12;;;16.40;51.48
46241;BME280;31961;52.416;-0.732;2022-07-23T02:22:21;100942.84;;;16.67;51.27
46241;BME280;31961;52.416;-0.732;2022-07-23T02:24:48;100947.09;;;16.59;51.56
46241;BME280;31961;52.416;-0.732;2022-07-23T02:27:16;100941.59;;;17.27;50.29
46241;BME280;31961;52.416;-0.732;2022-07-23T02:29:44;100943.10;;;16.98;50.65
46241;BME280;31961;52.416;-0.732;2022-07-23T02:32:11;100942.64;;;16.32;52.38
46241;BME280;31961;52.416;-0.732;2022-07-23T02:34:39;100950.23;;;15.88;53.80
46241;BME280;31961;52.416;-0.732;2022-07-23T02:37:06;100953.95;;;16.00;54.11
46241;BME280;31961;52.416;-0.732;2022-07-23T02:39:34;100951.57;;;15.86;54.25
46241;BME280;31961;52.416;-0.732;2022-07-23T02:42:01;100948.89;;;16.60;53.04
46241;BME280;31961;52.416;-0.732;2022-07-23T02:44:29;100955.95;;;16.28;53.37
46241;BME280;31961;52.416;-0.732;2022-07-23T02:46:56;100955.16;;;16.15;53.29
46241;BME280;31961;52.416;-0.732;2022-07-23T02:49:24;100952.14;;;16.92;52.27
46241;BME280;31961;52.416;-0.732;2022-07-23T02:51:52;100953.37;;;16.48;53.18
46241;BME280;31961;52.416;-0.732;2022-07-23T02:54:19;100956.00;;;15.93;54.70
46241;BME280;31961;52.416;-0.732;2022-07-23T02:56:47;100957.27;;;15.87;55.13
46241;BME280;31961;52.416;-0.732;2022-07-23T02:59:14;100961.24;;;16.00;54.13
46241;BME280;31961;52.416;-0.732;2022-07-23T03:01:42;100966.51;;;14.88;56.29
46241;BME280;31961;52.416;-0.732;2022-07-23T03:04:10;100964.18;;;15.70;55.83
46241;BME280;31961;52.416;-0.732;2022-07-23T03:06:37;100962.34;;;15.28;55.97
46241;BME280;31961;52.416;-0.732;2022-07-23T03:09:06;100960.64;;;15.76;54.34
46241;BME280;31961;52.416;-0.732;2022-07-23T03:11:33;100963.71;;;15.95;55.70
46241;BME280;31961;52.416;-0.732;2022-07-23T03:14:01;100955.69;;;15.90;55.54
46241;BME280;31961;52.416;-0.732;2022-07-23T03:16:28;100956.41;;;15.72;55.11
46241;BME280;31961;52.416;-0.732;2022-07-23T03:18:56;100957.57;;;15.51;55.52
46241;BME280;31961;52.416;-0.732;2022-07-23T03:21:23;100961.98;;;14.77;58.04
46241;BME280;31961;52.416;-0.732;2022-07-23T03:23:51;100962.51;;;15.41;56.32
46241;BME280;31961;52.416;-0.732;2022-07-23T03:26:18;100962.00;;;16.10;54.47
46241;BME280;31961;52.416;-0.732;2022-07-23T03:28:46;100959.63;;;16.57;53.29
46241;BME280;31961;52.416;-0.732;2022-07-23T03:31:13;100959.34;;;16.89;52.72
46241;BME280;31961;52.416;-0.732;2022-07-23T03:33:41;100953.36;;;16.94;52.51
46241;BME280;31961;52.416;-0.732;2022-07-23T03:36:09;100954.74;;;17.32;51.79
46241;BME280;31961;52.416;-0.732;2022-07-23T03:38:36;100953.33;;;17.13;51.55
46241;BME280;31961;52.416;-0.732;2022-07-23T03:41:03;100950.61;;;17.10;51.20
46241;BME280;31961;52.416;-0.732;2022-07-23T03:43:30;100946.71;;;17.05;52.09
46241;BME280;31961;52.416;-0.732;2022-07-23T03:45:58;100945.59;;;16.59;52.36
46241;BME280;31961;52.416;-0.732;2022-07-23T03:48:25;100949.73;;;16.75;52.35
46241;BME280;31961;52.416;-0.732;2022-07-23T03:50:52;100952.77;;;16.93;52.36
46241;BME280;31961;52.416;-0.732;2022-07-23T03:53:20;100961.97;;;16.01;54.09
46241;BME280;31961;52.416;-0.732;2022-07-23T03:55:47;100960.25;;;17.06;52.25
46241;BME280;31961;52.416;-0.732;2022-07-23T03:58:15;100966.55;;;16.55;53.38
46241;BME280;31961;52.416;-0.732;2022-07-23T04:00:42;100967.47;;;16.25;55.22
46241;BME280;31961;52.416;-0.732;2022-07-23T04:03:10;100967.55;;;14.70;57.96
46241;BME280;31961;52.416;-0.732;2022-07-23T04:05:36;100964.17;;;13.85;61.59
46241;BME280;31961;52.416;-0.732;2022-07-23T04:08:04;100957.67;;;13.87;62.10
46241;BME280;31961;52.416;-0.732;2022-07-23T04:10:31;100957.99;;;13.97;62.98
46241;BME280;31961;52.416;-0.732;2022-07-23T04:12:59;100955.10;;;14.71;59.86
46241;BME280;31961;52.416;-0.732;2022-07-23T04:15:27;100955.58;;;15.59;57.29
46241;BME280;31961;52.416;-0.732;2022-07-23T04:17:54;100952.67;;;13.93;61.08
46241;BME280;31961;52.416;-0.732;2022-07-23T04:20:22;100952.44;;;15.33;58.00
46241;BME280;31961;52.416;-0.732;2022-07-23T04:22:49;100950.02;;;14.88;59.34
46241;BME280;31961;52.416;-0.732;2022-07-23T04:25:16;100954.14;;;15.84;56.87
46241;BME280;31961;52.416;-0.732;2022-07-23T04:27:43;100956.03;;;15.37;56.71
46241;BME280;31961;52.416;-0.732;2022-07-23T04:30:11;100953.50;;;14.48;59.73
46241;BME280;31961;52.416;-0.732;2022-07-23T04:32:38;100953.36;;;14.40;60.30
46241;BME280;31961;52.416;-0.732;2022-07-23T04:35:06;100950.05;;;15.53;57.81
46241;BME280;31961;52.416;-0.732;2022-07-23T04:37:33;100948.84;;;15.75;56.59
46241;BME280;31961;52.416;-0.732;2022-07-23T04:40:01;100954.23;;;14.71;58.92
46241;BME280;31961;52.416;-0.732;2022-07-23T04:42:28;100952.01;;;15.05;59.34
46241;BME280;31961;52.416;-0.732;2022-07-23T04:44:55;100949.77;;;14.12;62.14
46241;BME280;31961;52.416;-0.732;2022-07-23T04:47:22;100947.31;;;14.51;60.96
46241;BME280;31961;52.416;-0.732;2022-07-23T04:49:50;100948.07;;;15.40;58.74
46241;BME280;31961;52.416;-0.732;2022-07-23T04:52:17;100943.60;;;14.61;60.14
46241;BME280;31961;52.416;-0.732;2022-07-23T04:54:45;100943.88;;;13.90;61.63
46241;BME280;31961;52.416;-0.732;2022-07-23T04:57:12;100951.13;;;15.50;59.78
46241;BME280;31961;52.416;-0.732;2022-07-23T04:59:40;100954.18;;;14.34;61.65
46241;BME280;31961;52.416;-0.732;2022-07-23T05:02:07;100958.16;;;13.93;63.51
46241;BME280;31961;52.416;-0.732;2022-07-23T05:04:35;100959.16;;;15.14;59.71
46241;BME280;31961;52.416;-0.732;2022-07-23T05:07:03;100956.11;;;14.06;62.20
46241;BME280;31961;52.416;-0.732;2022-07-23T05:09:30;100964.82;;;15.25;59.74
46241;BME280;31961;52.416;-0.732;2022-07-23T05:11:57;100960.66;;;15.31;59.47
46241;BME280;31961;52.416;-0.732;2022-07-23T05:14:25;100958.89;;;15.83;57.50
46241;BME280;31961;52.416;-0.732;2022-07-23T05:16:52;100950.05;;;16.47;55.96
46241;BME280;31961;52.416;-0.732;2022-07-23T05:19:19;100953.34;;;15.61;58.32
46241;BME280;31961;52.416;-0.732;2022-07-23T05:21:47;100945.10;;;14.63;60.14
46241;BME280;31961;52.416;-0.732;2022-07-23T05:24:14;100945.10;;;15.16;58.92
46241;BME280;31961;52.416;-0.732;2022-07-23T05:26:42;100944.49;;;15.46;58.85
46241;BME280;31961;52.416;-0.732;2022-07-23T05:29:09;100941.07;;;14.86;60.15
46241;BME280;31961;52.416;-0.732;2022-07-23T05:31:37;100943.28;;;15.01;60.35
46241;BME280;31961;52.416;-0.732;2022-07-23T05:34:04;100941.95;;;15.43;57.72
46241;BME280;31961;52.416;-0.732;2022-07-23T05:36:31;100939.90;;;16.72;55.14
46241;BME280;31961;52.416;-0.732;2022-07-23T05:38:58;100943.01;;;15.72;57.45
46241;BME280;31961;52.416;-0.732;2022-07-23T05:41:26;100943.03;;;15.96;56.76
46241;BME280;31961;52.416;-0.732;2022-07-23T05:43:53;100944.71;;;14.98;57.73
46241;BME280;31961;52.416;-0.732;2022-07-23T05:46:20;100947.51;;;15.83;56.38
46241;BME280;31961;52.416;-0.732;2022-07-23T05:48:48;100944.39;;;16.65;55.65
46241;BME280;31961;52.416;-0.732;2022-07-23T05:51:19;100951.61;;;14.96;59.12
46241;BME280;31961;52.416;-0.732;2022-07-23T05:53:47;100952.03;;;15.25;59.06
46241;BME280;31961;52.416;-0.732;2022-07-23T05:56:14;100950.51;;;14.47;61.89
46241;BME280;31961;52.416;-0.732;2022-07-23T05:58:41;100949.12;;;15.24;60.63
46241;BME280;31961;52.416;-0.732;2022-07-23T06:01:09;100950.85;;;15.32;60.52
46241;BME280;31961;52.416;-0.732;2022-07-23T06:03:37;100953.62;;;15.67;59.07
46241;BME280;31961;52.416;-0.732;2022-07-23T06:06:05;100960.38;;;14.50;62.40
46241;BME280;31961;52.416;-0.732;2022-07-23T06:08:33;100960.99;;;15.04;61.79
46241;BME280;31961;52.416;-0.732;2022-07-23T06:11:00;100958.16;;;15.92;59.21
46241;BME280;31961;52.416;-0.732;2022-07-23T06:13:27;100962.04;;;15.31;60.57
46241;BME280;31961;52.416;-0.732;2022-07-23T06:15:55;100965.32;;;13.01;66.03
46241;BME280;31961;52.416;-0.732;2022-07-23T06:18:22;100960.91;;;14.89;63.27
46241;BME280;31961;52.416;-0.732;2022-07-23T06:20:49;100963.24;;;14.76;63.47
46241;BME280;31961;52.416;-0.732;2022-07-23T06:23:16;100964.24;;;14.23;65.20
46241;BME280;31961;52.416;-0.732;2022-07-23T06:25:43;100966.34;;;14.41;65.21
46241;BME280;31961;52.416;-0.732;2022-07-23T06:28:11;100967.79;;;14.52;65.40
46241;BME280;31961;52.416;-0.732;2022-07-23T06:30:38;100965.81;;;14.64;65.84
46241;BME280;31961;52.416;-0.732;2022-07-23T06:33:06;100977.07;;;14.46;66.83
46241;BME280;31961;52.416;-0.732;2022-07-23T06:35:33;100979.67;;;14.52;65.90
46241;BME280;31961;52.416;-0.732;2022-07-23T06:38:00;100987.38;;;13.75;69.42
46241;BME280;31961;52.416;-0.732;2022-07-23T06:40:28;100987.10;;;13.44;70.47
46241;BME280;31961;52.416;-0.732;2022-07-23T06:42:55;100989.38;;;13.58;69.89
46241;BME280;31961;52.416;-0.732;2022-07-23T06:45:23;100982.75;;;13.10;70.50
46241;BME280;31961;52.416;-0.732;2022-07-23T06:47:51;100973.85;;;14.29;67.30
46241;BME280;31961;52.416;-0.732;2022-07-23T06:50:18;100975.39;;;14.31;67.43
46241;BME280;31961;52.416;-0.732;2022-07-23T06:52:46;100985.04;;;14.03;68.35
46241;BME280;31961;52.416;-0.732;2022-07-23T06:55:14;100994.34;;;13.16;71.96
46241;BME280;31961;52.416;-0.732;2022-07-23T06:57:41;100993.07;;;12.98;73.94
46241;BME280;31961;52.416;-0.732;2022-07-23T07:00:09;100992.20;;;13.64;71.77
46241;BME280;31961;52.416;-0.732;2022-07-23T07:02:36;100994.70;;;12.68;74.32
46241;BME280;31961;52.416;-0.732;2022-07-23T07:05:04;100984.30;;;12.70;74.49
46241;BME280;31961;52.416;-0.732;2022-07-23T07:07:31;100979.56;;;13.28;71.64
46241;BME280;31961;52.416;-0.732;2022-07-23T07:09:59;100981.44;;;13.44;70.85
46241;BME280;31961;52.416;-0.732;2022-07-23T07:12:26;100980.09;;;13.34;72.56
46241;BME280;31961;52.416;-0.732;2022-07-23T07:14:54;100984.99;;;13.19;73.02
46241;BME280;31961;52.416;-0.732;2022-07-23T07:17:21;100988.93;;;13.26;72.95
46241;BME280;31961;52.416;-0.732;2022-07-23T07:19:48;100997.54;;;12.78;73.31
46241;BME280;31961;52.416;-0.732;2022-07-23T07:22:16;100990.98;;;13.23;72.77
46241;BME280;31961;52.416;-0.732;2022-07-23T07:24:43;100991.10;;;13.31;73.05
46241;BME280;31961;52.416;-0.732;2022-07-23T07:27:09;100993.80;;;13.74;71.82
46241;BME280;31961;52.416;-0.732;2022-07-23T07:29:37;100989.01;;;14.25;69.50
46241;BME280;31961;52.416;-0.732;2022-07-23T07:32:04;100986.40;;;13.21;71.48
46241;BME280;31961;52.416;-0.732;2022-07-23T07:34:32;100984.78;;;14.44;70.47
46241;BME280;31961;52.416;-0.732;2022-07-23T07:36:59;100989.70;;;13.77;71.94
46241;BME280;31961;52.416;-0.732;2022-07-23T07:39:26;100985.99;;;14.03;70.35
46241;BME280;31961;52.416;-0.732;2022-07-23T07:41:54;100982.25;;;13.60;70.70
46241;BME280;31961;52.416;-0.732;2022-07-23T07:44:21;100982.36;;;13.17;72.13
46241;BME280;31961;52.416;-0.732;2022-07-23T07:46:48;100979.83;;;13.92;69.08
46241;BME280;31961;52.416;-0.732;2022-07-23T07:49:16;100983.86;;;13.34;71.23
46241;BME280;31961;52.416;-0.732;2022-07-23T07:51:43;100982.54;;;13.88;70.10
46241;BME280;31961;52.416;-0.732;2022-07-23T07:54:11;100980.93;;;14.02;69.84
46241;BME280;31961;52.416;-0.732;2022-07-23T07:56:38;100980.12;;;13.68;70.25
46241;BME280;31961;52.416;-0.732;2022-07-23T07:59:05;100975.91;;;13.89;70.07
46241;BME280;31961;52.416;-0.732;2022-07-23T08:01:32;100972.94;;;14.24;69.51
46241;BME280;31961;52.416;-0.732;2022-07-23T08:03:59;100974.02;;;14.82;66.68
46241;BME280;31961;52.416;-0.732;2022-07-23T08:06:27;100972.40;;;15.18;66.96
46241;BME280;31961;52.416;-0.732;2022-07-23T08:08:54;100969.79;;;14.26;67.17
46241;BME280;31961;52.416;-0.732;2022-07-23T08:11:22;100978.18;;;13.92;68.89
46241;BME280;31961;52.416;-0.732;2022-07-23T08:13:49;100980.82;;;13.98;70.78
46241;BME280;31961;52.416;-0.732;2022-07-23T08:16:16;100974.18;;;14.50;67.98
46241;BME280;31961;52.416;-0.732;2022-07-23T08:18:44;100977.83;;;14.52;68.63
46241;BME280;31961;52.416;-0.732;2022-07-23T08:21:11;100982.75;;;14.24;68.58
46241;BME280;31961;52.416;-0.732;2022-07-23T08:23:38;100985.16;;;14.30;67.24
46241;BME280;31961;52.416;-0.732;2022-07-23T08:26:05;100988.30;;;13.78;69.10
46241;BME280;31961;52.416;-0.732;2022-07-23T08:28:33;100986.09;;;14.90;66.40
46241;BME280;31961;52.416;-0.732;2022-07-23T08:31:00;100990.46;;;15.76;64.08
46241;BME280;31961;52.416;-0.732;2022-07-23T08:33:27;100984.58;;;16.41;62.01
46241;BME280;31961;52.416;-0.732;2022-07-23T08:35:54;100983.99;;;15.79;61.76
46241;BME280;31961;52.416;-0.732;2022-07-23T08:38:22;100982.53;;;16.20;61.56
46241;BME280;31961;52.416;-0.732;2022-07-23T08:40:51;100979.67;;;16.08;61.27
46241;BME280;31961;52.416;-0.732;2022-07-23T08:43:23;100966.70;;;16.98;59.29
46241;BME280;31961;52.416;-0.732;2022-07-23T08:45:53;100967.18;;;17.10;57.21
46241;BME280;31961;52.416;-0.732;2022-07-23T08:48:22;100961.10;;;16.37;60.13
46241;BME280;31961;52.416;-0.732;2022-07-23T08:50:52;100953.49;;;16.93;58.80
46241;BME280;31961;52.416;-0.732;2022-07-23T08:53:21;100951.58;;;17.19;58.01
46241;BME280;31961;52.416;-0.732;2022-07-23T08:55:50;100946.70;;;17.22;56.96
46241;BME280;31961;52.416;-0.732;2022-07-23T08:58:19;100945.70;;;16.81;56.87
46241;BME280;31961;52.416;-0.732;2022-07-23T09:00:47;100940.80;;;16.64;57.78
46241;BME280;31961;52.416;-0.732;2022-07-23T09:03:17;100949.61;;;16.98;56.50
46241;BME280;31961;52.416;-0.732;2022-07-23T09:05:46;100951.92;;;17.17;56.08
46241;BME280;31961;52.416;-0.732;2022-07-23T09:08:15;100954.81;;;17.68;54.97
46241;BME280;31961;52.416;-0.732;2022-07-23T09:10:45;100954.34;;;17.39;54.66
46241;BME280;31961;52.416;-0.732;2022-07-23T09:13:47;100955.57;;;17.27;53.27
46241;BME280;31961;52.416;-0.732;2022-07-23T09:16:17;100956.35;;;17.66;52.67
46241;BME280;31961;52.416;-0.732;2022-07-23T09:18:47;100953.87;;;17.41;52.82
46241;BME280;31961;52.416;-0.732;2022-07-23T09:21:18;100957.05;;;17.72;53.39
46241;BME280;31961;52.416;-0.732;2022-07-23T09:23:48;100959.20;;;17.26;53.42
46241;BME280;31961;52.416;-0.732;2022-07-23T09:26:21;100967.15;;;16.35;54.74
46241;BME280;31961;52.416;-0.732;2022-07-23T09:28:54;100966.86;;;16.66;55.37
46241;BME280;31961;52.416;-0.732;2022-07-23T09:31:23;100973.40;;;16.35;55.64
46241;BME280;31961;52.416;-0.732;2022-07-23T09:34:01;100973.05;;;16.83;54.86
46241;BME280;31961;52.416;-0.732;2022-07-23T09:36:32;100965.33;;;17.19;53.96
46241;BME280;31961;52.416;-0.732;2022-07-23T09:38:59;100964.87;;;17.34;53.94
46241;BME280;31961;52.416;-0.732;2022-07-23T09:41:34;100962.67;;;17.64;51.88
46241;BME280;31961;52.416;-0.732;2022-07-23T09:44:09;100971.01;;;17.10;53.94
46241;BME280;31961;52.416;-0.732;2022-07-23T09:46:36;100968.90;;;17.21;51.38
46241;BME280;31961;52.416;-0.732;2022-07-23T09:49:12;100971.84;;;16.89;53.33
46241;BME280;31961;52.416;-0.732;2022-07-23T09:51:44;100966.85;;;17.29;51.72
46241;BME280;31961;52.416;-0.732;2022-07-23T09:54:22;100963.94;;;16.91;50.90
46241;BME280;31961;52.416;-0.732;2022-07-23T09:56:51;100964.37;;;17.07;52.30
46241;BME280;31961;52.416;-0.732;2022-07-23T09:59:18;100964.66;;;17.01;52.24
46241;BME280;31961;52.416;-0.732;2022-07-23T10:01:51;100962.03;;;17.20;51.07
46241;BME280;31961;52.416;-0.732;2022-07-23T10:04:21;100963.21;;;17.33;50.85
46241;BME280;31961;52.416;-0.732;2022-07-23T10:06:52;100960.38;;;17.22;48.11
46241;BME280;31961;52.416;-0.732;2022-07-23T10:09:24;100955.61;;;17.19;49.39
46241;BME280;31961;52.416;-0.732;2022-07-23T10:11:55;100950.78;;;17.27;48.79
46241;BME280;31961;52.416;-0.732;2022-07-23T10:14:23;100951.27;;;17.15;49.70
46241;BME280;31961;52.416;-0.732;2022-07-23T10:16:51;100940.61;;;17.43;48.70
46241;BME280;31961;52.416;-0.732;2022-07-23T10:19:19;100948.61;;;17.01;50.02
46241;BME280;31961;52.416;-0.732;2022-07-23T10:21:47;100948.94;;;17.49;49.79
46241;BME280;31961;52.416;-0.732;2022-07-23T10:24:24;100949.00;;;18.00;48.37
46241;BME280;31961;52.416;-0.732;2022-07-23T10:27:04;100953.96;;;17.64;48.22
46241;BME280;31961;52.416;-0.732;2022-07-23T10:29:45;100958.27;;;18.19;47.66
46241;BME280;31961;52.416;-0.732;2022-07-23T10:32:21;100942.38;;;18.20;46.44
46241;BME280;31961;52.416;-0.732;2022-07-23T10:34:58;100938.88;;;19.16;45.36
46241;BME280;31961;52.416;-0.732;2022-07-23T10:37:36;100938.13;;;18.02;45.69
46241;BME280;31961;52.416;-0.732;2022-07-23T10:40:13;100932.45;;;18.90;44.91
46241;BME280;31961;52.416;-0.732;2022-07-23T10:42:41;100940.12;;;18.53;44.60
46241;BME280;31961;52.416;-0.732;2022-07-23T10:45:30;100936.19;;;18.42;44.59
46241;BME280;31961;52.416;-0.732;2022-07-23T10:48:13;100933.51;;;18.78;45.16
46241;BME280;31961;52.416;-0.732;2022-07-23T10:50:41;100932.01;;;18.29;45.08
46241;BME280;31961;52.416;-0.732;2022-07-23T10:53:11;100937.20;;;18.41;44.31
46241;BME280;31961;52.416;-0.732;2022-07-23T10:55:41;100926.05;;;18.42;44.87
46241;BME280;31961;52.416;-0.732;2022-07-23T10:58:08;100924.99;;;19.47;43.62
46241;BME280;31961;52.416;-0.732;2022-07-23T11:00:37;100926.48;;;19.35;43.26
46241;BME280;31961;52.416;-0.732;2022-07-23T11:03:27;100922.79;;;19.73;42.72
46241;BME280;31961;52.416;-0.732;2022-07-23T11:05:54;100919.19;;;19.69;41.77
46241;BME280;31961;52.416;-0.732;2022-07-23T11:08:21;100918.82;;;20.21;41.36
46241;BME280;31961;52.416;-0.732;2022-07-23T11:10:52;100916.97;;;19.59;41.84
46241;BME280;31961;52.416;-0.732;2022-07-23T11:13:39;100915.04;;;19.57;41.65
46241;BME280;31961;52.416;-0.732;2022-07-23T11:16:12;100904.01;;;19.87;40.40
46241;BME280;31961;52.416;-0.732;2022-07-23T11:18:57;100897.32;;;20.66;39.68
46241;BME280;31961;52.416;-0.732;2022-07-23T11:21:51;100898.24;;;20.44;39.32
46241;BME280;31961;52.416;-0.732;2022-07-23T11:24:21;100903.69;;;19.97;40.26
46241;BME280;31961;52.416;-0.732;2022-07-23T11:26:52;100903.62;;;20.59;39.09
46241;BME280;31961;52.416;-0.732;2022-07-23T11:29:52;100903.48;;;19.59;41.66
46241;BME280;31961;52.416;-0.732;2022-07-23T11:32:25;100901.87;;;20.75;40.16
46241;BME280;31961;52.416;-0.732;2022-07-23T11:34:55;100908.13;;;20.40;39.75
46241;BME280;31961;52.416;-0.732;2022-07-23T11:37:39;100905.89;;;20.25;39.15
46241;BME280;31961;52.416;-0.732;2022-07-23T11:40:10;100900.91;;;21.02;38.19
46241;BME280;31961;52.416;-0.732;2022-07-23T11:42:40;100900.50;;;20.84;36.98
46241;BME280;31961;52.416;-0.732;2022-07-23T11:45:18;100909.35;;;20.37;38.75
46241;BME280;31961;52.416;-0.732;2022-07-23T11:47:45;100901.44;;;20.55;38.39
46241;BME280;31961;52.416;-0.732;2022-07-23T11:50:13;100906.42;;;19.76;40.67
46241;BME280;31961;52.416;-0.732;2022-07-23T11:52:40;100907.30;;;20.45;39.39
46241;BME280;31961;52.416;-0.732;2022-07-23T11:55:10;100903.87;;;21.30;38.12
46241;BME280;31961;52.416;-0.732;2022-07-23T11:57:40;100913.60;;;20.61;38.83
46241;BME280;31961;52.416;-0.732;2022-07-23T12:00:10;100907.24;;;20.70;37.91
46241;BME280;31961;52.416;-0.732;2022-07-23T12:02:38;100903.79;;;21.42;37.13
46241;BME280;31961;52.416;-0.732;2022-07-23T12:05:07;100893.90;;;21.16;37.01
46241;BME280;31961;52.416;-0.732;2022-07-23T12:07:36;100897.33;;;21.89;36.40
46241;BME280;31961;52.416;-0.732;2022-07-23T12:10:09;100899.09;;;21.20;36.16
46241;BME280;31961;52.416;-0.732;2022-07-23T12:12:39;100893.42;;;20.94;36.34
46241;BME280;31961;52.416;-0.732;2022-07-23T12:15:07;100889.31;;;21.91;35.63
46241;BME280;31961;52.416;-0.732;2022-07-23T12:17:37;100897.65;;;21.79;35.46
46241;BME280;31961;52.416;-0.732;2022-07-23T12:20:07;100895.47;;;20.94;36.25
46241;BME280;31961;52.416;-0.732;2022-07-23T12:22:36;100905.48;;;20.40;37.48
46241;BME280;31961;52.416;-0.732;2022-07-23T12:25:07;100903.44;;;20.88;37.82
46241;BME280;31961;52.416;-0.732;2022-07-23T12:27:36;100892.29;;;21.25;36.70
46241;BME280;31961;52.416;-0.732;2022-07-23T12:30:22;100891.40;;;21.35;35.48
46241;BME280;31961;52.416;-0.732;2022-07-23T12:32:51;100884.73;;;21.46;36.16
46241;BME280;31961;52.416;-0.732;2022-07-23T12:35:19;100892.09;;;21.33;37.25
46241;BME280;31961;52.416;-0.732;2022-07-23T12:37:49;100890.19;;;21.91;36.95
46241;BME280;31961;52.416;-0.732;2022-07-23T12:40:26;100898.33;;;20.81;37.69
46241;BME280;31961;52.416;-0.732;2022-07-23T12:42:55;100889.92;;;21.00;37.33
46241;BME280;31961;52.416;-0.732;2022-07-23T12:45:24;100892.46;;;20.86;38.10
46241;BME280;31961;52.416;-0.732;2022-07-23T12:47:57;100891.47;;;21.48;38.53
46241;BME280;31961;52.416;-0.732;2022-07-23T12:50:34;100883.11;;;21.30;37.55